This is the latest recevied weather packets stored in our database for station/object EA1HTW-1. If no packets are shown the sender has not sent any weather packets the latest 1 day(s).
| Time | Temp. | Humidity | Pressure | Rain* | Wind** | Luminosity | Snow |
|---|---|---|---|---|---|---|---|
| 1778099370 | 10.56° C | 82% | 985.4 hPa | 0 mm | - | - | - |
| 1778096370 | 12.22° C | 76% | 984.8 hPa | 0 mm | - | - | - |
| 1778090969 | 13.89° C | 71% | 984.4 hPa | 0 mm | - | - | - |
| 1778087969 | 15° C | 69% | 984.7 hPa | 0 mm | - | - | - |
| 1778084969 | 14.44° C | 70% | 985 hPa | 0 mm | - | - | - |
| 1778083770 | 15° C | 68% | 985.1 hPa | 0 mm | - | - | - |
| 1778081370 | 16.67° C | 63% | 985.4 hPa | 0 mm | - | - | - |
| 1778078970 | 13.89° C | 72% | 985.7 hPa | 0 mm | - | - | - |
| 1778075369 | 15.56° C | 69% | 986.1 hPa | 0 mm | - | - | - |
| 1778074768 | 15.56° C | 70% | 986.1 hPa | 0 mm | - | - | - |
| 1778072969 | 15.56° C | 69% | 986 hPa | 0 mm | - | - | - |
| 1778071168 | 17.78° C | 67% | 986.2 hPa | 0 mm | - | - | - |
| 1778068168 | 15.56° C | 69% | 987 hPa | 0 mm | - | - | - |
| 1778065168 | 15° C | 70% | 987.4 hPa | 0 mm | - | - | - |
| 1778064569 | 14.44° C | 74% | 987.6 hPa | 0 mm | - | - | - |
| 1778062769 | 12.78° C | 82% | 987.8 hPa | 0 mm | - | - | - |
| 1778059766 | 11.67° C | 90% | 988 hPa | 0 mm | - | - | - |
| 1778058568 | 11.11° C | 94% | 987.8 hPa | 0 mm | - | - | - |
| 1778057367 | 10° C | 96% | 988 hPa | 0 mm | - | - | - |
| 1778056167 | 10° C | 97% | 987.8 hPa | 0 mm | - | - | - |
| 1778055567 | 9.44° C | 97% | 987.8 hPa | 0 mm | - | - | - |
| 1778054968 | 9.44° C | 97% | 987.8 hPa | 0 mm | - | - | - |
| 1778054367 | 8.33° C | 97% | 987.7 hPa | 0 mm | - | - | - |
| 1778053168 | 7.78° C | 97% | 987.8 hPa | 0 mm | - | - | - |
| 1778052569 | 7.78° C | 97% | 987.7 hPa | 0 mm | - | - | - |
* Rain latest hour (hover to see other rain measurements)
** Current wind speed in m/s (hover to see current wind gust speed)